sensor_id;sensor_type;location;lat;lon;timestamp;temperature;humidity
11826;DHT22;5970;48.094;11.496;2022-11-10T00:02:12;11.50;99.90
11826;DHT22;5970;48.094;11.496;2022-11-10T00:04:39;11.50;99.90
11826;DHT22;5970;48.094;11.496;2022-11-10T00:07:06;11.40;99.90
11826;DHT22;5970;48.094;11.496;2022-11-10T00:09:33;12.10;99.90
11826;DHT22;5970;48.094;11.496;2022-11-10T00:11:59;11.40;99.90
11826;DHT22;5970;48.094;11.496;2022-11-10T00:14:26;11.50;99.90
11826;DHT22;5970;48.094;11.496;2022-11-10T00:17:11;11.50;99.90
11826;DHT22;5970;48.094;11.496;2022-11-10T00:19:38;11.40;99.90
11826;DHT22;5970;48.094;11.496;2022-11-10T00:22:05;12.00;99.90
11826;DHT22;5970;48.094;11.496;2022-11-10T00:24:31;11.40;99.90
11826;DHT22;5970;48.094;11.496;2022-11-10T00:26:58;11.40;99.90
11826;DHT22;5970;48.094;11.496;2022-11-10T00:29:24;11.40;99.90
11826;DHT22;5970;48.094;11.496;2022-11-10T00:31:51;12.00;99.90
11826;DHT22;5970;48.094;11.496;2022-11-10T00:34:18;11.40;99.90
11826;DHT22;5970;48.094;11.496;2022-11-10T00:36:44;11.80;99.90
11826;DHT22;5970;48.094;11.496;2022-11-10T00:39:11;11.50;99.90
11826;DHT22;5970;48.094;11.496;2022-11-10T00:41:38;11.50;99.90
11826;DHT22;5970;48.094;11.496;2022-11-10T00:44:04;11.30;99.90
11826;DHT22;5970;48.094;11.496;2022-11-10T00:46:31;11.40;99.90
11826;DHT22;5970;48.094;11.496;2022-11-10T00:48:57;11.80;99.90
11826;DHT22;5970;48.094;11.496;2022-11-10T00:51:25;11.50;99.90
11826;DHT22;5970;48.094;11.496;2022-11-10T00:53:52;11.80;99.90
11826;DHT22;5970;48.094;11.496;2022-11-10T00:56:19;12.60;99.90
11826;DHT22;5970;48.094;11.496;2022-11-10T00:58:46;12.40;99.90
11826;DHT22;5970;48.094;11.496;2022-11-10T01:01:13;11.50;99.90
11826;DHT22;5970;48.094;11.496;2022-11-10T01:03:40;12.10;99.90
11826;DHT22;5970;48.094;11.496;2022-11-10T01:06:08;11.50;99.90
11826;DHT22;5970;48.094;11.496;2022-11-10T01:08:35;11.50;99.90
11826;DHT22;5970;48.094;11.496;2022-11-10T01:11:07;11.60;99.90
11826;DHT22;5970;48.094;11.496;2022-11-10T01:13:34;11.60;99.90
11826;DHT22;5970;48.094;11.496;2022-11-10T01:16:04;11.60;99.90
11826;DHT22;5970;48.094;11.496;2022-11-10T01:18:32;11.60;99.90
11826;DHT22;5970;48.094;11.496;2022-11-10T01:20:58;11.50;99.90
11826;DHT22;5970;48.094;11.496;2022-11-10T01:23:25;11.60;99.90
11826;DHT22;5970;48.094;11.496;2022-11-10T01:25:55;11.60;99.90
11826;DHT22;5970;48.094;11.496;2022-11-10T01:28:22;11.70;99.90
11826;DHT22;5970;48.094;11.496;2022-11-10T01:30:49;11.50;99.90
11826;DHT22;5970;48.094;11.496;2022-11-10T01:33:15;11.50;99.90
11826;DHT22;5970;48.094;11.496;2022-11-10T01:35:44;11.40;99.90
11826;DHT22;5970;48.094;11.496;2022-11-10T01:38:11;12.20;99.90
11826;DHT22;5970;48.094;11.496;2022-11-10T01:40:37;11.70;99.90
11826;DHT22;5970;48.094;11.496;2022-11-10T01:43:04;11.60;99.90
11826;DHT22;5970;48.094;11.496;2022-11-10T01:45:40;12.20;99.90
11826;DHT22;5970;48.094;11.496;2022-11-10T01:48:09;11.60;99.90
11826;DHT22;5970;48.094;11.496;2022-11-10T01:50:37;11.60;99.90
11826;DHT22;5970;48.094;11.496;2022-11-10T01:53:07;11.80;99.90
11826;DHT22;5970;48.094;11.496;2022-11-10T01:55:35;11.70;99.90
11826;DHT22;5970;48.094;11.496;2022-11-10T01:58:02;11.70;99.90
11826;DHT22;5970;48.094;11.496;2022-11-10T02:00:29;11.60;99.90
11826;DHT22;5970;48.094;11.496;2022-11-10T02:03:05;11.60;99.90
11826;DHT22;5970;48.094;11.496;2022-11-10T02:05:33;11.60;99.90
11826;DHT22;5970;48.094;11.496;2022-11-10T02:08:00;11.50;99.90
11826;DHT22;5970;48.094;11.496;2022-11-10T02:10:27;11.60;99.90
11826;DHT22;5970;48.094;11.496;2022-11-10T02:12:54;11.50;99.90
11826;DHT22;5970;48.094;11.496;2022-11-10T02:15:21;11.50;99.90
11826;DHT22;5970;48.094;11.496;2022-11-10T02:17:48;11.50;99.90
11826;DHT22;5970;48.094;11.496;2022-11-10T02:20:16;11.50;99.90
11826;DHT22;5970;48.094;11.496;2022-11-10T02:22:43;11.50;99.90
11826;DHT22;5970;48.094;11.496;2022-11-10T02:25:10;12.20;99.90
11826;DHT22;5970;48.094;11.496;2022-11-10T02:27:39;11.50;99.90
11826;DHT22;5970;48.094;11.496;2022-11-10T02:30:05;11.40;99.90
11826;DHT22;5970;48.094;11.496;2022-11-10T02:32:33;11.40;99.90
11826;DHT22;5970;48.094;11.496;2022-11-10T02:34:59;11.50;99.90
11826;DHT22;5970;48.094;11.496;2022-11-10T02:37:26;12.30;99.90
11826;DHT22;5970;48.094;11.496;2022-11-10T02:39:53;11.30;99.90
11826;DHT22;5970;48.094;11.496;2022-11-10T02:42:19;11.40;99.90
11826;DHT22;5970;48.094;11.496;2022-11-10T02:44:46;11.30;99.90
11826;DHT22;5970;48.094;11.496;2022-11-10T02:47:13;11.30;99.90
11826;DHT22;5970;48.094;11.496;2022-11-10T02:49:39;11.20;99.90
11826;DHT22;5970;48.094;11.496;2022-11-10T02:52:06;11.20;99.90
11826;DHT22;5970;48.094;11.496;2022-11-10T02:54:32;11.20;99.90
11826;DHT22;5970;48.094;11.496;2022-11-10T02:56:59;11.30;99.90
11826;DHT22;5970;48.094;11.496;2022-11-10T02:59:28;11.30;99.90
11826;DHT22;5970;48.094;11.496;2022-11-10T03:01:54;11.50;99.90
11826;DHT22;5970;48.094;11.496;2022-11-10T03:04:21;11.10;99.90
11826;DHT22;5970;48.094;11.496;2022-11-10T03:06:48;11.20;99.90
11826;DHT22;5970;48.094;11.496;2022-11-10T03:09:14;11.30;99.90
11826;DHT22;5970;48.094;11.496;2022-11-10T03:11:41;11.30;99.90
11826;DHT22;5970;48.094;11.496;2022-11-10T03:14:08;11.30;99.90
11826;DHT22;5970;48.094;11.496;2022-11-10T03:16:34;11.20;99.90
11826;DHT22;5970;48.094;11.496;2022-11-10T03:19:01;11.20;99.90
11826;DHT22;5970;48.094;11.496;2022-11-10T03:21:28;11.20;99.90
11826;DHT22;5970;48.094;11.496;2022-11-10T03:23:54;11.20;99.90
11826;DHT22;5970;48.094;11.496;2022-11-10T03:26:21;11.20;99.90
11826;DHT22;5970;48.094;11.496;2022-11-10T03:28:48;11.20;99.90
11826;DHT22;5970;48.094;11.496;2022-11-10T03:31:14;11.10;99.90
11826;DHT22;5970;48.094;11.496;2022-11-10T03:33:41;11.10;99.90
11826;DHT22;5970;48.094;11.496;2022-11-10T03:36:08;12.30;99.90
11826;DHT22;5970;48.094;11.496;2022-11-10T03:38:34;10.80;99.90
11826;DHT22;5970;48.094;11.496;2022-11-10T03:41:01;11.20;99.90
11826;DHT22;5970;48.094;11.496;2022-11-10T03:43:46;11.20;99.90
11826;DHT22;5970;48.094;11.496;2022-11-10T03:46:13;11.10;99.90
11826;DHT22;5970;48.094;11.496;2022-11-10T03:48:39;11.30;99.90
11826;DHT22;5970;48.094;11.496;2022-11-10T03:51:06;11.10;99.90
11826;DHT22;5970;48.094;11.496;2022-11-10T03:53:32;11.10;99.90
11826;DHT22;5970;48.094;11.496;2022-11-10T03:56:00;11.00;99.90
11826;DHT22;5970;48.094;11.496;2022-11-10T03:58:27;11.00;99.90
11826;DHT22;5970;48.094;11.496;2022-11-10T04:00:53;11.10;99.90
11826;DHT22;5970;48.094;11.496;2022-11-10T04:03:20;11.50;99.90
11826;DHT22;5970;48.094;11.496;2022-11-10T04:05:47;11.10;99.90
11826;DHT22;5970;48.094;11.496;2022-11-10T04:08:33;11.00;99.90
11826;DHT22;5970;48.094;11.496;2022-11-10T04:11:18;11.00;99.90
11826;DHT22;5970;48.094;11.496;2022-11-10T04:14:03;11.00;99.90
11826;DHT22;5970;48.094;11.496;2022-11-10T04:16:48;11.00;99.90
11826;DHT22;5970;48.094;11.496;2022-11-10T04:19:15;10.90;99.90
11826;DHT22;5970;48.094;11.496;2022-11-10T04:21:42;11.80;99.90
11826;DHT22;5970;48.094;11.496;2022-11-10T04:24:08;10.90;99.90
11826;DHT22;5970;48.094;11.496;2022-11-10T04:26:35;10.80;99.90
11826;DHT22;5970;48.094;11.496;2022-11-10T04:29:06;12.10;99.90
11826;DHT22;5970;48.094;11.496;2022-11-10T04:31:37;10.90;99.90
11826;DHT22;5970;48.094;11.496;2022-11-10T04:34:08;11.10;99.90
11826;DHT22;5970;48.094;11.496;2022-11-10T04:36:35;10.90;99.90
11826;DHT22;5970;48.094;11.496;2022-11-10T04:39:02;10.90;99.90
11826;DHT22;5970;48.094;11.496;2022-11-10T04:41:30;10.90;99.90
11826;DHT22;5970;48.094;11.496;2022-11-10T04:43:57;11.00;99.90
11826;DHT22;5970;48.094;11.496;2022-11-10T04:46:31;11.10;99.90
11826;DHT22;5970;48.094;11.496;2022-11-10T04:48:58;11.00;99.90
11826;DHT22;5970;48.094;11.496;2022-11-10T04:51:29;11.10;99.90
11826;DHT22;5970;48.094;11.496;2022-11-10T04:53:56;11.00;99.90
11826;DHT22;5970;48.094;11.496;2022-11-10T04:56:23;11.00;99.90
11826;DHT22;5970;48.094;11.496;2022-11-10T04:58:50;12.00;99.90
11826;DHT22;5970;48.094;11.496;2022-11-10T05:01:20;11.80;99.90
11826;DHT22;5970;48.094;11.496;2022-11-10T05:03:47;10.80;99.90
11826;DHT22;5970;48.094;11.496;2022-11-10T05:06:14;11.10;99.90
11826;DHT22;5970;48.094;11.496;2022-11-10T05:08:41;10.70;99.90
11826;DHT22;5970;48.094;11.496;2022-11-10T05:11:08;10.40;99.90
11826;DHT22;5970;48.094;11.496;2022-11-10T05:13:35;10.70;99.90
11826;DHT22;5970;48.094;11.496;2022-11-10T05:16:02;10.70;99.90
11826;DHT22;5970;48.094;11.496;2022-11-10T05:18:28;10.70;99.90
11826;DHT22;5970;48.094;11.496;2022-11-10T05:20:55;12.10;99.90
11826;DHT22;5970;48.094;11.496;2022-11-10T05:23:22;10.60;99.90
11826;DHT22;5970;48.094;11.496;2022-11-10T05:26:04;10.70;99.90
11826;DHT22;5970;48.094;11.496;2022-11-10T05:28:31;10.70;99.90
11826;DHT22;5970;48.094;11.496;2022-11-10T05:30:58;10.70;99.90
11826;DHT22;5970;48.094;11.496;2022-11-10T05:33:25;10.70;99.90
11826;DHT22;5970;48.094;11.496;2022-11-10T05:35:51;10.60;99.90
11826;DHT22;5970;48.094;11.496;2022-11-10T05:38:18;10.70;99.90
11826;DHT22;5970;48.094;11.496;2022-11-10T05:40:45;10.70;99.90
11826;DHT22;5970;48.094;11.496;2022-11-10T05:43:11;10.70;99.90
11826;DHT22;5970;48.094;11.496;2022-11-10T05:45:38;11.40;99.90
11826;DHT22;5970;48.094;11.496;2022-11-10T05:48:05;10.60;99.90
11826;DHT22;5970;48.094;11.496;2022-11-10T05:50:31;10.60;99.90
11826;DHT22;5970;48.094;11.496;2022-11-10T05:52:58;10.60;99.90
11826;DHT22;5970;48.094;11.496;2022-11-10T05:55:25;10.60;99.90
11826;DHT22;5970;48.094;11.496;2022-11-10T05:57:53;10.60;99.90
11826;DHT22;5970;48.094;11.496;2022-11-10T06:00:21;10.60;99.90
11826;DHT22;5970;48.094;11.496;2022-11-10T06:05:24;10.60;99.90
11826;DHT22;5970;48.094;11.496;2022-11-10T06:07:57;10.60;99.90
11826;DHT22;5970;48.094;11.496;2022-11-10T06:10:23;10.60;99.90
11826;DHT22;5970;48.094;11.496;2022-11-10T06:12:50;10.60;99.90
11826;DHT22;5970;48.094;11.496;2022-11-10T06:15:17;10.40;99.90
11826;DHT22;5970;48.094;11.496;2022-11-10T06:17:44;11.20;99.90
11826;DHT22;5970;48.094;11.496;2022-11-10T06:20:11;10.70;99.90
11826;DHT22;5970;48.094;11.496;2022-11-10T06:22:38;10.70;99.90
11826;DHT22;5970;48.094;11.496;2022-11-10T06:25:05;10.70;99.90
11826;DHT22;5970;48.094;11.496;2022-11-10T06:27:32;10.70;99.90
11826;DHT22;5970;48.094;11.496;2022-11-10T06:29:59;10.70;99.90
11826;DHT22;5970;48.094;11.496;2022-11-10T06:32:26;10.80;99.90
11826;DHT22;5970;48.094;11.496;2022-11-10T06:34:52;10.70;99.90
11826;DHT22;5970;48.094;11.496;2022-11-10T06:37:25;10.80;99.90
11826;DHT22;5970;48.094;11.496;2022-11-10T06:39:52;11.40;99.90
11826;DHT22;5970;48.094;11.496;2022-11-10T06:42:19;10.70;99.90
11826;DHT22;5970;48.094;11.496;2022-11-10T06:44:45;10.70;99.90
11826;DHT22;5970;48.094;11.496;2022-11-10T06:47:12;10.60;99.90
11826;DHT22;5970;48.094;11.496;2022-11-10T06:49:38;10.70;99.90
11826;DHT22;5970;48.094;11.496;2022-11-10T06:52:05;10.60;99.90
11826;DHT22;5970;48.094;11.496;2022-11-10T06:54:32;10.60;99.90
11826;DHT22;5970;48.094;11.496;2022-11-10T06:56:58;10.70;99.90
11826;DHT22;5970;48.094;11.496;2022-11-10T06:59:25;10.60;99.90
11826;DHT22;5970;48.094;11.496;2022-11-10T07:01:51;10.60;99.90
11826;DHT22;5970;48.094;11.496;2022-11-10T07:04:18;10.60;99.90
11826;DHT22;5970;48.094;11.496;2022-11-10T07:06:46;11.00;99.90
11826;DHT22;5970;48.094;11.496;2022-11-10T07:09:13;10.60;99.90
11826;DHT22;5970;48.094;11.496;2022-11-10T07:11:40;10.60;99.90
11826;DHT22;5970;48.094;11.496;2022-11-10T07:14:07;10.80;99.90
11826;DHT22;5970;48.094;11.496;2022-11-10T07:16:33;10.60;99.90
11826;DHT22;5970;48.094;11.496;2022-11-10T07:19:00;10.60;99.90
11826;DHT22;5970;48.094;11.496;2022-11-10T07:21:27;10.60;99.90
11826;DHT22;5970;48.094;11.496;2022-11-10T07:23:53;10.40;99.90
11826;DHT22;5970;48.094;11.496;2022-11-10T07:26:20;10.50;99.90
11826;DHT22;5970;48.094;11.496;2022-11-10T07:28:46;10.50;99.90
11826;DHT22;5970;48.094;11.496;2022-11-10T07:31:13;10.50;99.90
11826;DHT22;5970;48.094;11.496;2022-11-10T07:33:40;10.50;99.90
11826;DHT22;5970;48.094;11.496;2022-11-10T07:36:06;10.60;99.90
11826;DHT22;5970;48.094;11.496;2022-11-10T07:38:33;10.80;99.90
11826;DHT22;5970;48.094;11.496;2022-11-10T07:41:00;10.90;99.90
11826;DHT22;5970;48.094;11.496;2022-11-10T07:43:26;11.50;99.90
11826;DHT22;5970;48.094;11.496;2022-11-10T07:45:53;11.00;99.90
11826;DHT22;5970;48.094;11.496;2022-11-10T07:48:20;11.10;99.90
11826;DHT22;5970;48.094;11.496;2022-11-10T07:50:46;11.80;99.90
11826;DHT22;5970;48.094;11.496;2022-11-10T07:53:14;11.30;99.90
11826;DHT22;5970;48.094;11.496;2022-11-10T07:55:42;11.50;99.90
11826;DHT22;5970;48.094;11.496;2022-11-10T07:58:09;11.60;99.90
11826;DHT22;5970;48.094;11.496;2022-11-10T08:00:37;13.00;99.90
11826;DHT22;5970;48.094;11.496;2022-11-10T08:03:04;11.80;99.90
11826;DHT22;5970;48.094;11.496;2022-11-10T08:05:31;11.80;99.90
11826;DHT22;5970;48.094;11.496;2022-11-10T08:07:58;11.60;99.90
11826;DHT22;5970;48.094;11.496;2022-11-10T08:10:26;11.70;99.90
11826;DHT22;5970;48.094;11.496;2022-11-10T08:12:57;11.60;99.90
11826;DHT22;5970;48.094;11.496;2022-11-10T08:15:24;11.70;99.90
11826;DHT22;5970;48.094;11.496;2022-11-10T08:17:53;11.70;99.90
11826;DHT22;5970;48.094;11.496;2022-11-10T08:20:23;11.70;99.90
11826;DHT22;5970;48.094;11.496;2022-11-10T08:22:51;11.70;99.90
11826;DHT22;5970;48.094;11.496;2022-11-10T08:25:21;11.70;99.90
11826;DHT22;5970;48.094;11.496;2022-11-10T08:27:48;11.60;99.90
11826;DHT22;5970;48.094;11.496;2022-11-10T08:30:14;11.60;99.90
11826;DHT22;5970;48.094;11.496;2022-11-10T08:32:41;11.70;99.90
11826;DHT22;5970;48.094;11.496;2022-11-10T08:35:08;11.70;99.90
11826;DHT22;5970;48.094;11.496;2022-11-10T08:37:34;11.80;99.90
11826;DHT22;5970;48.094;11.496;2022-11-10T08:40:01;11.90;99.90
11826;DHT22;5970;48.094;11.496;2022-11-10T08:42:28;11.60;99.90
11826;DHT22;5970;48.094;11.496;2022-11-10T08:44:55;13.70;99.90
11826;DHT22;5970;48.094;11.496;2022-11-10T08:47:21;11.90;99.90
11826;DHT22;5970;48.094;11.496;2022-11-10T08:49:48;12.20;99.90
11826;DHT22;5970;48.094;11.496;2022-11-10T08:52:15;11.90;99.90
11826;DHT22;5970;48.094;11.496;2022-11-10T08:54:41;12.70;99.90
11826;DHT22;5970;48.094;11.496;2022-11-10T08:57:08;12.30;99.90
11826;DHT22;5970;48.094;11.496;2022-11-10T08:59:34;12.70;99.90
11826;DHT22;5970;48.094;11.496;2022-11-10T09:02:01;12.40;99.90
11826;DHT22;5970;48.094;11.496;2022-11-10T09:04:28;12.40;99.90
11826;DHT22;5970;48.094;11.496;2022-11-10T09:06:54;12.60;99.90
11826;DHT22;5970;48.094;11.496;2022-11-10T09:09:24;12.50;99.90
11826;DHT22;5970;48.094;11.496;2022-11-10T09:11:51;13.60;99.90
11826;DHT22;5970;48.094;11.496;2022-11-10T09:14:18;13.50;99.90
11826;DHT22;5970;48.094;11.496;2022-11-10T09:16:44;13.30;99.90
11826;DHT22;5970;48.094;11.496;2022-11-10T09:19:11;13.20;99.90
11826;DHT22;5970;48.094;11.496;2022-11-10T09:21:45;13.20;99.90
11826;DHT22;5970;48.094;11.496;2022-11-10T09:24:11;13.80;99.90
11826;DHT22;5970;48.094;11.496;2022-11-10T09:26:38;13.60;99.90
11826;DHT22;5970;48.094;11.496;2022-11-10T09:29:05;13.60;99.90
11826;DHT22;5970;48.094;11.496;2022-11-10T09:31:31;13.90;99.90
11826;DHT22;5970;48.094;11.496;2022-11-10T09:33:58;13.90;99.90
11826;DHT22;5970;48.094;11.496;2022-11-10T09:36:25;14.00;99.90
11826;DHT22;5970;48.094;11.496;2022-11-10T09:38:51;14.30;99.90
11826;DHT22;5970;48.094;11.496;2022-11-10T09:41:18;14.20;99.90
11826;DHT22;5970;48.094;11.496;2022-11-10T09:46:25;14.20;99.90
11826;DHT22;5970;48.094;11.496;2022-11-10T09:48:54;14.00;99.90
11826;DHT22;5970;48.094;11.496;2022-11-10T09:51:27;14.20;99.90
11826;DHT22;5970;48.094;11.496;2022-11-10T09:53:57;14.20;99.90
11826;DHT22;5970;48.094;11.496;2022-11-10T09:56:29;14.10;99.90
11826;DHT22;5970;48.094;11.496;2022-11-10T09:58:57;14.70;99.90
11826;DHT22;5970;48.094;11.496;2022-11-10T10:01:26;14.30;99.90
11826;DHT22;5970;48.094;11.496;2022-11-10T10:03:59;14.50;99.90
11826;DHT22;5970;48.094;11.496;2022-11-10T10:06:28;14.70;99.90
11826;DHT22;5970;48.094;11.496;2022-11-10T10:11:53;15.10;99.40
11826;DHT22;5970;48.094;11.496;2022-11-10T10:17:19;15.40;99.10
11826;DHT22;5970;48.094;11.496;2022-11-10T10:19:57;15.70;99.00
11826;DHT22;5970;48.094;11.496;2022-11-10T10:24:53;15.70;98.40
11826;DHT22;5970;48.094;11.496;2022-11-10T10:27:23;15.50;98.30
11826;DHT22;5970;48.094;11.496;2022-11-10T10:29:51;15.40;98.40
11826;DHT22;5970;48.094;11.496;2022-11-10T10:32:18;15.20;98.70
11826;DHT22;5970;48.094;11.496;2022-11-10T10:34:46;15.10;99.40
11826;DHT22;5970;48.094;11.496;2022-11-10T10:37:23;16.20;99.70
11826;DHT22;5970;48.094;11.496;2022-11-10T10:39:51;14.80;98.80
11826;DHT22;5970;48.094;11.496;2022-11-10T10:47:36;14.90;98.90
11826;DHT22;5970;48.094;11.496;2022-11-10T10:55:34;14.90;99.00
11826;DHT22;5970;48.094;11.496;2022-11-10T10:58:02;14.90;98.10
11826;DHT22;5970;48.094;11.496;2022-11-10T11:00:29;14.90;98.60
11826;DHT22;5970;48.094;11.496;2022-11-10T11:03:03;14.70;98.30
11826;DHT22;5970;48.094;11.496;2022-11-10T11:05:30;14.70;99.20
11826;DHT22;5970;48.094;11.496;2022-11-10T11:07:58;14.70;98.80
11826;DHT22;5970;48.094;11.496;2022-11-10T11:10:26;14.70;98.40
11826;DHT22;5970;48.094;11.496;2022-11-10T11:12:53;14.80;97.40
11826;DHT22;5970;48.094;11.496;2022-11-10T11:15:27;15.30;97.70
11826;DHT22;5970;48.094;11.496;2022-11-10T11:17:55;16.00;97.00
11826;DHT22;5970;48.094;11.496;2022-11-10T11:20:28;17.70;94.60
11826;DHT22;5970;48.094;11.496;2022-11-10T11:22:56;18.20;92.70
11826;DHT22;5970;48.094;11.496;2022-11-10T11:25:28;19.40;92.20
11826;DHT22;5970;48.094;11.496;2022-11-10T11:33:11;24.20;81.20
11826;DHT22;5970;48.094;11.496;2022-11-10T11:50:56;26.50;60.70
11826;DHT22;5970;48.094;11.496;2022-11-10T11:53:37;24.40;63.00
11826;DHT22;5970;48.094;11.496;2022-11-10T11:56:20;22.70;66.20
11826;DHT22;5970;48.094;11.496;2022-11-10T11:58:54;21.70;68.90
11826;DHT22;5970;48.094;11.496;2022-11-10T12:01:38;22.20;69.20
11826;DHT22;5970;48.094;11.496;2022-11-10T12:04:14;22.70;68.00
11826;DHT22;5970;48.094;11.496;2022-11-10T12:09:55;23.60;63.10
11826;DHT22;5970;48.094;11.496;2022-11-10T12:12:18;24.80;62.50
11826;DHT22;5970;48.094;11.496;2022-11-10T12:17:35;24.10;62.70
11826;DHT22;5970;48.094;11.496;2022-11-10T12:25:35;22.10;64.60
11826;DHT22;5970;48.094;11.496;2022-11-10T12:28:17;22.50;67.20
11826;DHT22;5970;48.094;11.496;2022-11-10T12:30:46;21.40;66.60
11826;DHT22;5970;48.094;11.496;2022-11-10T12:35:45;23.40;65.00
11826;DHT22;5970;48.094;11.496;2022-11-10T12:38:15;23.40;62.00
11826;DHT22;5970;48.094;11.496;2022-11-10T12:40:44;23.90;62.20
11826;DHT22;5970;48.094;11.496;2022-11-10T12:43:17;23.60;63.30
11826;DHT22;5970;48.094;11.496;2022-11-10T12:45:48;23.20;62.70
11826;DHT22;5970;48.094;11.496;2022-11-10T12:48:16;22.90;64.40
11826;DHT22;5970;48.094;11.496;2022-11-10T12:50:46;22.70;64.30
11826;DHT22;5970;48.094;11.496;2022-11-10T12:53:30;22.10;64.60
11826;DHT22;5970;48.094;11.496;2022-11-10T12:55:59;22.50;64.10
11826;DHT22;5970;48.094;11.496;2022-11-10T12:58:26;22.00;64.50
11826;DHT22;5970;48.094;11.496;2022-11-10T13:00:55;21.40;68.90
11826;DHT22;5970;48.094;11.496;2022-11-10T13:03:27;21.20;67.50
11826;DHT22;5970;48.094;11.496;2022-11-10T13:06:01;21.10;67.70
11826;DHT22;5970;48.094;11.496;2022-11-10T13:08:29;21.00;68.50
11826;DHT22;5970;48.094;11.496;2022-11-10T13:11:05;20.60;66.30
11826;DHT22;5970;48.094;11.496;2022-11-10T13:13:46;18.70;71.00
11826;DHT22;5970;48.094;11.496;2022-11-10T13:26:51;18.40;72.90
11826;DHT22;5970;48.094;11.496;2022-11-10T13:31:55;17.90;75.70
11826;DHT22;5970;48.094;11.496;2022-11-10T13:36:55;17.80;74.80
11826;DHT22;5970;48.094;11.496;2022-11-10T13:39:23;17.80;74.20
11826;DHT22;5970;48.094;11.496;2022-11-10T13:46:55;18.20;72.90
11826;DHT22;5970;48.094;11.496;2022-11-10T13:49:24;18.20;74.10
11826;DHT22;5970;48.094;11.496;2022-11-10T14:00:00;18.60;71.10
11826;DHT22;5970;48.094;11.496;2022-11-10T14:05:05;18.70;70.70
11826;DHT22;5970;48.094;11.496;2022-11-10T14:07:38;19.00;72.20
11826;DHT22;5970;48.094;11.496;2022-11-10T14:10:10;19.20;73.00
11826;DHT22;5970;48.094;11.496;2022-11-10T14:12:40;19.20;73.70
11826;DHT22;5970;48.094;11.496;2022-11-10T14:15:13;19.60;70.70
11826;DHT22;5970;48.094;11.496;2022-11-10T14:17:48;19.50;71.60
11826;DHT22;5970;48.094;11.496;2022-11-10T14:20:23;19.40;72.90
11826;DHT22;5970;48.094;11.496;2022-11-10T14:22:51;19.20;72.70
11826;DHT22;5970;48.094;11.496;2022-11-10T14:25:35;18.70;76.60
11826;DHT22;5970;48.094;11.496;2022-11-10T14:30:50;17.50;76.40
11826;DHT22;5970;48.094;11.496;2022-11-10T14:33:17;17.00;81.10
11826;DHT22;5970;48.094;11.496;2022-11-10T14:35:46;16.60;80.50
11826;DHT22;5970;48.094;11.496;2022-11-10T14:38:16;16.10;81.20
11826;DHT22;5970;48.094;11.496;2022-11-10T14:40:47;15.70;82.60
11826;DHT22;5970;48.094;11.496;2022-11-10T14:43:24;15.50;81.90
11826;DHT22;5970;48.094;11.496;2022-11-10T14:45:51;15.20;85.20
11826;DHT22;5970;48.094;11.496;2022-11-10T14:48:21;15.00;85.60
11826;DHT22;5970;48.094;11.496;2022-11-10T14:50:48;15.90;87.10
11826;DHT22;5970;48.094;11.496;2022-11-10T14:53:28;15.30;87.30
11826;DHT22;5970;48.094;11.496;2022-11-10T14:55:56;14.30;87.10
11826;DHT22;5970;48.094;11.496;2022-11-10T14:58:25;14.70;87.70
11826;DHT22;5970;48.094;11.496;2022-11-10T15:00:53;14.00;87.70
11826;DHT22;5970;48.094;11.496;2022-11-10T15:05:52;13.90;88.40
11826;DHT22;5970;48.094;11.496;2022-11-10T15:08:19;14.80;91.00
11826;DHT22;5970;48.094;11.496;2022-11-10T15:10:47;14.80;91.40
11826;DHT22;5970;48.094;11.496;2022-11-10T15:13:18;13.60;91.60
11826;DHT22;5970;48.094;11.496;2022-11-10T15:15:44;13.40;92.30
11826;DHT22;5970;48.094;11.496;2022-11-10T15:18:22;13.20;92.70
11826;DHT22;5970;48.094;11.496;2022-11-10T15:21:28;13.00;92.90
11826;DHT22;5970;48.094;11.496;2022-11-10T15:23:43;12.80;93.30
11826;DHT22;5970;48.094;11.496;2022-11-10T15:26:26;12.60;93.90
11826;DHT22;5970;48.094;11.496;2022-11-10T15:28:54;12.50;94.10
11826;DHT22;5970;48.094;11.496;2022-11-10T15:31:21;12.30;94.50
11826;DHT22;5970;48.094;11.496;2022-11-10T15:33:50;12.20;94.90
11826;DHT22;5970;48.094;11.496;2022-11-10T15:41:49;11.80;95.90
11826;DHT22;5970;48.094;11.496;2022-11-10T15:46:43;11.50;96.90
11826;DHT22;5970;48.094;11.496;2022-11-10T15:49:23;11.70;98.50
11826;DHT22;5970;48.094;11.496;2022-11-10T15:51:51;11.20;97.50
11826;DHT22;5970;48.094;11.496;2022-11-10T15:54:18;10.80;99.90
11826;DHT22;5970;48.094;11.496;2022-11-10T15:56:46;10.50;98.20
11826;DHT22;5970;48.094;11.496;2022-11-10T15:59:13;10.90;99.10
11826;DHT22;5970;48.094;11.496;2022-11-10T16:01:40;11.30;99.90
11826;DHT22;5970;48.094;11.496;2022-11-10T16:04:07;10.40;99.70
11826;DHT22;5970;48.094;11.496;2022-11-10T16:06:34;11.90;99.90
11826;DHT22;5970;48.094;11.496;2022-11-10T16:09:01;10.70;99.90
11826;DHT22;5970;48.094;11.496;2022-11-10T16:11:27;10.40;99.90
11826;DHT22;5970;48.094;11.496;2022-11-10T16:13:55;10.60;99.90
11826;DHT22;5970;48.094;11.496;2022-11-10T16:16:22;10.50;99.90
11826;DHT22;5970;48.094;11.496;2022-11-10T16:18:50;10.20;99.90
11826;DHT22;5970;48.094;11.496;2022-11-10T16:21:18;10.10;99.90
11826;DHT22;5970;48.094;11.496;2022-11-10T16:23:45;10.30;99.90
11826;DHT22;5970;48.094;11.496;2022-11-10T16:26:12;9.90;99.90
11826;DHT22;5970;48.094;11.496;2022-11-10T16:28:40;10.00;99.90
11826;DHT22;5970;48.094;11.496;2022-11-10T16:31:10;9.80;99.90
11826;DHT22;5970;48.094;11.496;2022-11-10T16:33:37;9.60;99.90
11826;DHT22;5970;48.094;11.496;2022-11-10T16:36:03;9.50;99.90
11826;DHT22;5970;48.094;11.496;2022-11-10T16:38:30;9.50;99.90
11826;DHT22;5970;48.094;11.496;2022-11-10T16:43:24;10.10;99.90
11826;DHT22;5970;48.094;11.496;2022-11-10T16:45:54;9.30;99.90
11826;DHT22;5970;48.094;11.496;2022-11-10T16:48:23;9.40;99.90
11826;DHT22;5970;48.094;11.496;2022-11-10T16:50:50;9.40;99.90
11826;DHT22;5970;48.094;11.496;2022-11-10T16:53:22;9.30;99.90
11826;DHT22;5970;48.094;11.496;2022-11-10T16:55:49;9.30;99.90
11826;DHT22;5970;48.094;11.496;2022-11-10T16:58:16;9.90;99.90
11826;DHT22;5970;48.094;11.496;2022-11-10T17:00:42;9.20;99.90
11826;DHT22;5970;48.094;11.496;2022-11-10T17:03:19;9.10;99.90
11826;DHT22;5970;48.094;11.496;2022-11-10T17:05:47;9.20;99.90
11826;DHT22;5970;48.094;11.496;2022-11-10T17:08:23;9.00;99.90
11826;DHT22;5970;48.094;11.496;2022-11-10T17:10:51;9.00;99.90
11826;DHT22;5970;48.094;11.496;2022-11-10T17:13:18;9.90;99.90
11826;DHT22;5970;48.094;11.496;2022-11-10T17:15:45;10.10;99.90
11826;DHT22;5970;48.094;11.496;2022-11-10T17:18:13;8.60;99.90
11826;DHT22;5970;48.094;11.496;2022-11-10T17:20:41;9.00;99.90
11826;DHT22;5970;48.094;11.496;2022-11-10T17:23:11;8.90;99.90
11826;DHT22;5970;48.094;11.496;2022-11-10T17:25:39;8.90;99.90
11826;DHT22;5970;48.094;11.496;2022-11-10T17:28:08;9.70;99.90